sensor_id;sensor_type;location;lat;lon;timestamp;temperature;humidity
19232;DHT22;9750;48.730;10.294;2023-10-08T00:00:05;16.20;80.30
19232;DHT22;9750;48.730;10.294;2023-10-08T00:02:46;16.20;79.80
19232;DHT22;9750;48.730;10.294;2023-10-08T00:05:13;16.20;80.30
19232;DHT22;9750;48.730;10.294;2023-10-08T00:07:42;16.20;80.40
19232;DHT22;9750;48.730;10.294;2023-10-08T00:10:11;16.20;80.00
19232;DHT22;9750;48.730;10.294;2023-10-08T00:12:39;16.30;80.10
19232;DHT22;9750;48.730;10.294;2023-10-08T00:15:07;16.30;79.40
19232;DHT22;9750;48.730;10.294;2023-10-08T00:17:36;16.40;79.50
19232;DHT22;9750;48.730;10.294;2023-10-08T00:20:04;16.40;80.20
19232;DHT22;9750;48.730;10.294;2023-10-08T00:22:31;16.40;80.60
19232;DHT22;9750;48.730;10.294;2023-10-08T00:25:01;16.40;79.80
19232;DHT22;9750;48.730;10.294;2023-10-08T00:27:38;16.40;79.50
19232;DHT22;9750;48.730;10.294;2023-10-08T00:30:07;16.40;79.30
19232;DHT22;9750;48.730;10.294;2023-10-08T00:32:43;16.40;80.00
19232;DHT22;9750;48.730;10.294;2023-10-08T00:35:10;16.50;79.90
19232;DHT22;9750;48.730;10.294;2023-10-08T00:37:39;16.50;79.80
19232;DHT22;9750;48.730;10.294;2023-10-08T00:40:08;16.50;79.70
19232;DHT22;9750;48.730;10.294;2023-10-08T00:42:39;16.50;79.60
19232;DHT22;9750;48.730;10.294;2023-10-08T00:45:11;16.40;79.70
19232;DHT22;9750;48.730;10.294;2023-10-08T00:47:40;16.40;80.20
19232;DHT22;9750;48.730;10.294;2023-10-08T00:50:09;16.50;80.20
19232;DHT22;9750;48.730;10.294;2023-10-08T00:52:46;16.50;80.40
19232;DHT22;9750;48.730;10.294;2023-10-08T00:55:23;16.50;79.70
19232;DHT22;9750;48.730;10.294;2023-10-08T00:57:58;16.40;80.30
19232;DHT22;9750;48.730;10.294;2023-10-08T01:00:34;16.40;80.50
19232;DHT22;9750;48.730;10.294;2023-10-08T01:03:06;16.40;80.50
19232;DHT22;9750;48.730;10.294;2023-10-08T01:05:40;16.40;79.90
19232;DHT22;9750;48.730;10.294;2023-10-08T01:08:13;16.40;80.80
19232;DHT22;9750;48.730;10.294;2023-10-08T01:10:45;16.40;80.70
19232;DHT22;9750;48.730;10.294;2023-10-08T01:13:14;16.40;81.70
19232;DHT22;9750;48.730;10.294;2023-10-08T01:15:43;16.30;82.10
19232;DHT22;9750;48.730;10.294;2023-10-08T01:18:13;16.30;80.60
19232;DHT22;9750;48.730;10.294;2023-10-08T01:20:44;16.30;80.70
19232;DHT22;9750;48.730;10.294;2023-10-08T01:23:19;16.30;80.90
19232;DHT22;9750;48.730;10.294;2023-10-08T01:25:49;16.30;80.70
19232;DHT22;9750;48.730;10.294;2023-10-08T01:28:19;16.30;82.20
19232;DHT22;9750;48.730;10.294;2023-10-08T01:30:52;16.30;81.10
19232;DHT22;9750;48.730;10.294;2023-10-08T01:33:21;16.30;82.10
19232;DHT22;9750;48.730;10.294;2023-10-08T01:35:49;16.30;81.70
19232;DHT22;9750;48.730;10.294;2023-10-08T01:38:16;16.20;81.40
19232;DHT22;9750;48.730;10.294;2023-10-08T01:40:51;16.20;81.30
19232;DHT22;9750;48.730;10.294;2023-10-08T01:43:18;16.30;81.50
19232;DHT22;9750;48.730;10.294;2023-10-08T01:45:46;16.30;82.50
19232;DHT22;9750;48.730;10.294;2023-10-08T01:48:18;16.20;81.50
19232;DHT22;9750;48.730;10.294;2023-10-08T01:50:46;16.20;81.80
19232;DHT22;9750;48.730;10.294;2023-10-08T01:53:15;16.20;83.70
19232;DHT22;9750;48.730;10.294;2023-10-08T01:55:45;16.20;83.20
19232;DHT22;9750;48.730;10.294;2023-10-08T01:58:17;16.20;82.60
19232;DHT22;9750;48.730;10.294;2023-10-08T02:00:46;16.20;82.90
19232;DHT22;9750;48.730;10.294;2023-10-08T02:03:14;16.20;82.30
19232;DHT22;9750;48.730;10.294;2023-10-08T02:05:42;16.20;83.70
19232;DHT22;9750;48.730;10.294;2023-10-08T02:08:11;16.20;83.60
19232;DHT22;9750;48.730;10.294;2023-10-08T02:10:39;16.20;83.10
19232;DHT22;9750;48.730;10.294;2023-10-08T02:13:07;16.20;82.60
19232;DHT22;9750;48.730;10.294;2023-10-08T02:15:40;16.20;82.70
19232;DHT22;9750;48.730;10.294;2023-10-08T02:18:07;16.30;81.80
19232;DHT22;9750;48.730;10.294;2023-10-08T02:20:35;16.30;81.90
19232;DHT22;9750;48.730;10.294;2023-10-08T02:23:02;16.30;82.20
19232;DHT22;9750;48.730;10.294;2023-10-08T02:25:31;16.30;81.60
19232;DHT22;9750;48.730;10.294;2023-10-08T02:28:02;16.30;81.70
19232;DHT22;9750;48.730;10.294;2023-10-08T02:30:29;16.40;81.50
19232;DHT22;9750;48.730;10.294;2023-10-08T02:32:58;16.40;82.30
19232;DHT22;9750;48.730;10.294;2023-10-08T02:35:25;16.30;81.50
19232;DHT22;9750;48.730;10.294;2023-10-08T02:37:53;16.40;82.50
19232;DHT22;9750;48.730;10.294;2023-10-08T02:40:21;16.40;81.70
19232;DHT22;9750;48.730;10.294;2023-10-08T02:46:14;16.40;81.10
19232;DHT22;9750;48.730;10.294;2023-10-08T02:48:45;16.40;81.50
19232;DHT22;9750;48.730;10.294;2023-10-08T02:51:12;16.40;82.00
19232;DHT22;9750;48.730;10.294;2023-10-08T02:53:40;16.40;82.30
19232;DHT22;9750;48.730;10.294;2023-10-08T02:56:09;16.40;81.90
19232;DHT22;9750;48.730;10.294;2023-10-08T02:58:40;16.40;81.90
19232;DHT22;9750;48.730;10.294;2023-10-08T03:01:09;16.40;81.40
19232;DHT22;9750;48.730;10.294;2023-10-08T03:03:39;16.40;80.90
19232;DHT22;9750;48.730;10.294;2023-10-08T03:06:09;16.50;81.30
19232;DHT22;9750;48.730;10.294;2023-10-08T03:08:40;16.50;80.70
19232;DHT22;9750;48.730;10.294;2023-10-08T03:11:09;16.50;80.20
19232;DHT22;9750;48.730;10.294;2023-10-08T03:13:44;16.50;80.30
19232;DHT22;9750;48.730;10.294;2023-10-08T03:16:13;16.50;82.60
19232;DHT22;9750;48.730;10.294;2023-10-08T03:18:40;16.50;82.90
19232;DHT22;9750;48.730;10.294;2023-10-08T03:21:23;16.50;80.90
19232;DHT22;9750;48.730;10.294;2023-10-08T03:24:15;16.50;80.60
19232;DHT22;9750;48.730;10.294;2023-10-08T03:26:55;16.50;79.70
19232;DHT22;9750;48.730;10.294;2023-10-08T03:29:32;16.50;80.30
19232;DHT22;9750;48.730;10.294;2023-10-08T03:32:06;16.50;80.40
19232;DHT22;9750;48.730;10.294;2023-10-08T03:34:39;16.50;79.70
19232;DHT22;9750;48.730;10.294;2023-10-08T03:37:10;16.50;80.10
19232;DHT22;9750;48.730;10.294;2023-10-08T03:39:46;16.50;79.90
19232;DHT22;9750;48.730;10.294;2023-10-08T03:42:26;16.50;80.40
19232;DHT22;9750;48.730;10.294;2023-10-08T03:45:00;16.50;79.70
19232;DHT22;9750;48.730;10.294;2023-10-08T03:47:37;16.50;79.90
19232;DHT22;9750;48.730;10.294;2023-10-08T03:50:06;16.50;80.20
19232;DHT22;9750;48.730;10.294;2023-10-08T03:52:37;16.50;79.80
19232;DHT22;9750;48.730;10.294;2023-10-08T03:55:05;16.50;80.50
19232;DHT22;9750;48.730;10.294;2023-10-08T03:57:47;16.50;80.10
19232;DHT22;9750;48.730;10.294;2023-10-08T04:00:22;16.50;80.00
19232;DHT22;9750;48.730;10.294;2023-10-08T04:02:57;16.50;80.30
19232;DHT22;9750;48.730;10.294;2023-10-08T04:05:34;16.50;80.80
19232;DHT22;9750;48.730;10.294;2023-10-08T04:08:11;16.50;80.80
19232;DHT22;9750;48.730;10.294;2023-10-08T04:10:50;16.50;81.20
19232;DHT22;9750;48.730;10.294;2023-10-08T04:13:53;16.50;81.60
19232;DHT22;9750;48.730;10.294;2023-10-08T04:16:20;16.40;81.50
19232;DHT22;9750;48.730;10.294;2023-10-08T04:18:47;16.40;81.70
19232;DHT22;9750;48.730;10.294;2023-10-08T04:21:18;16.40;82.10
19232;DHT22;9750;48.730;10.294;2023-10-08T04:23:48;16.40;82.50
19232;DHT22;9750;48.730;10.294;2023-10-08T04:26:19;16.30;82.20
19232;DHT22;9750;48.730;10.294;2023-10-08T04:28:50;16.30;82.30
19232;DHT22;9750;48.730;10.294;2023-10-08T04:31:21;16.30;82.90
19232;DHT22;9750;48.730;10.294;2023-10-08T04:33:50;16.30;82.80
19232;DHT22;9750;48.730;10.294;2023-10-08T04:36:18;16.30;82.60
19232;DHT22;9750;48.730;10.294;2023-10-08T04:38:47;16.30;82.90
19232;DHT22;9750;48.730;10.294;2023-10-08T04:41:16;16.30;83.10
19232;DHT22;9750;48.730;10.294;2023-10-08T04:43:45;16.30;83.30
19232;DHT22;9750;48.730;10.294;2023-10-08T04:46:15;16.20;83.30
19232;DHT22;9750;48.730;10.294;2023-10-08T04:49:05;16.30;83.70
19232;DHT22;9750;48.730;10.294;2023-10-08T04:51:43;16.30;83.50
19232;DHT22;9750;48.730;10.294;2023-10-08T04:54:13;16.30;83.80
19232;DHT22;9750;48.730;10.294;2023-10-08T04:56:43;16.30;83.80
19232;DHT22;9750;48.730;10.294;2023-10-08T04:59:10;16.30;83.90
19232;DHT22;9750;48.730;10.294;2023-10-08T05:01:38;16.30;84.10
19232;DHT22;9750;48.730;10.294;2023-10-08T05:04:13;16.30;84.20
19232;DHT22;9750;48.730;10.294;2023-10-08T05:06:58;16.30;84.30
19232;DHT22;9750;48.730;10.294;2023-10-08T05:09:44;16.40;84.60
19232;DHT22;9750;48.730;10.294;2023-10-08T05:12:37;16.40;84.80
19232;DHT22;9750;48.730;10.294;2023-10-08T05:15:04;16.30;85.00
19232;DHT22;9750;48.730;10.294;2023-10-08T05:17:59;16.30;85.40
19232;DHT22;9750;48.730;10.294;2023-10-08T05:20:39;16.30;85.70
19232;DHT22;9750;48.730;10.294;2023-10-08T05:23:27;16.20;86.00
19232;DHT22;9750;48.730;10.294;2023-10-08T05:26:20;16.20;85.70
19232;DHT22;9750;48.730;10.294;2023-10-08T05:28:57;16.20;86.10
19232;DHT22;9750;48.730;10.294;2023-10-08T05:35:11;16.10;86.50
19232;DHT22;9750;48.730;10.294;2023-10-08T05:37:58;16.10;87.10
19232;DHT22;9750;48.730;10.294;2023-10-08T05:40:39;16.10;87.60
19232;DHT22;9750;48.730;10.294;2023-10-08T05:43:27;16.10;88.20
19232;DHT22;9750;48.730;10.294;2023-10-08T05:46:15;16.00;88.30
19232;DHT22;9750;48.730;10.294;2023-10-08T05:49:05;15.90;88.70
19232;DHT22;9750;48.730;10.294;2023-10-08T05:51:52;15.90;89.10
19232;DHT22;9750;48.730;10.294;2023-10-08T05:54:36;15.90;88.50
19232;DHT22;9750;48.730;10.294;2023-10-08T05:57:23;15.90;89.00
19232;DHT22;9750;48.730;10.294;2023-10-08T06:00:07;15.90;89.30
19232;DHT22;9750;48.730;10.294;2023-10-08T06:02:51;15.90;88.70
19232;DHT22;9750;48.730;10.294;2023-10-08T06:05:36;16.00;88.60
19232;DHT22;9750;48.730;10.294;2023-10-08T06:08:09;16.00;88.60
19232;DHT22;9750;48.730;10.294;2023-10-08T06:10:40;16.10;88.80
19232;DHT22;9750;48.730;10.294;2023-10-08T06:13:17;16.10;89.20
19232;DHT22;9750;48.730;10.294;2023-10-08T06:15:57;16.10;89.30
19232;DHT22;9750;48.730;10.294;2023-10-08T06:18:34;16.10;90.10
19232;DHT22;9750;48.730;10.294;2023-10-08T06:21:04;16.10;90.10
19232;DHT22;9750;48.730;10.294;2023-10-08T06:23:34;16.10;90.30
19232;DHT22;9750;48.730;10.294;2023-10-08T06:26:02;16.10;90.20
19232;DHT22;9750;48.730;10.294;2023-10-08T06:28:42;16.10;89.30
19232;DHT22;9750;48.730;10.294;2023-10-08T06:31:11;16.10;90.10
19232;DHT22;9750;48.730;10.294;2023-10-08T06:33:42;16.20;89.20
19232;DHT22;9750;48.730;10.294;2023-10-08T06:36:10;16.20;89.20
19232;DHT22;9750;48.730;10.294;2023-10-08T06:38:43;16.20;88.60
19232;DHT22;9750;48.730;10.294;2023-10-08T06:41:14;16.30;89.00
19232;DHT22;9750;48.730;10.294;2023-10-08T06:43:44;16.30;88.50
19232;DHT22;9750;48.730;10.294;2023-10-08T06:46:16;16.30;88.60
19232;DHT22;9750;48.730;10.294;2023-10-08T06:48:46;16.40;88.40
19232;DHT22;9750;48.730;10.294;2023-10-08T06:51:15;16.40;88.30
19232;DHT22;9750;48.730;10.294;2023-10-08T06:53:45;16.40;87.90
19232;DHT22;9750;48.730;10.294;2023-10-08T06:56:13;16.50;88.40
19232;DHT22;9750;48.730;10.294;2023-10-08T06:58:41;16.50;88.40
19232;DHT22;9750;48.730;10.294;2023-10-08T07:01:11;16.50;87.40
19232;DHT22;9750;48.730;10.294;2023-10-08T07:03:40;16.50;88.20
19232;DHT22;9750;48.730;10.294;2023-10-08T07:06:07;16.50;87.70
19232;DHT22;9750;48.730;10.294;2023-10-08T07:08:52;16.50;87.70
19232;DHT22;9750;48.730;10.294;2023-10-08T07:11:21;16.60;87.20
19232;DHT22;9750;48.730;10.294;2023-10-08T07:13:49;16.60;87.70
19232;DHT22;9750;48.730;10.294;2023-10-08T07:16:17;16.60;90.70
19232;DHT22;9750;48.730;10.294;2023-10-08T07:18:48;16.60;89.20
19232;DHT22;9750;48.730;10.294;2023-10-08T07:21:18;16.70;88.00
19232;DHT22;9750;48.730;10.294;2023-10-08T07:23:54;16.70;88.70
19232;DHT22;9750;48.730;10.294;2023-10-08T07:26:24;16.70;88.70
19232;DHT22;9750;48.730;10.294;2023-10-08T07:28:52;16.70;87.50
19232;DHT22;9750;48.730;10.294;2023-10-08T07:31:21;16.80;87.80
19232;DHT22;9750;48.730;10.294;2023-10-08T07:33:50;16.80;87.70
19232;DHT22;9750;48.730;10.294;2023-10-08T07:36:22;16.80;87.40
19232;DHT22;9750;48.730;10.294;2023-10-08T07:38:51;16.90;87.70
19232;DHT22;9750;48.730;10.294;2023-10-08T07:41:19;16.90;87.40
19232;DHT22;9750;48.730;10.294;2023-10-08T07:43:47;16.90;87.60
19232;DHT22;9750;48.730;10.294;2023-10-08T07:46:21;17.00;87.30
19232;DHT22;9750;48.730;10.294;2023-10-08T07:48:50;17.00;88.90
19232;DHT22;9750;48.730;10.294;2023-10-08T07:51:17;17.00;86.90
19232;DHT22;9750;48.730;10.294;2023-10-08T07:53:47;17.10;87.20
19232;DHT22;9750;48.730;10.294;2023-10-08T07:56:15;17.10;87.10
19232;DHT22;9750;48.730;10.294;2023-10-08T07:58:43;17.10;88.50
19232;DHT22;9750;48.730;10.294;2023-10-08T08:01:10;17.10;87.20
19232;DHT22;9750;48.730;10.294;2023-10-08T08:03:39;17.10;88.10
19232;DHT22;9750;48.730;10.294;2023-10-08T08:06:09;17.10;87.70
19232;DHT22;9750;48.730;10.294;2023-10-08T08:08:37;17.00;87.30
19232;DHT22;9750;48.730;10.294;2023-10-08T08:11:05;17.00;87.80
19232;DHT22;9750;48.730;10.294;2023-10-08T08:13:38;17.10;88.90
19232;DHT22;9750;48.730;10.294;2023-10-08T08:16:08;17.10;89.00
19232;DHT22;9750;48.730;10.294;2023-10-08T08:18:44;17.10;88.60
19232;DHT22;9750;48.730;10.294;2023-10-08T08:21:13;17.10;88.40
19232;DHT22;9750;48.730;10.294;2023-10-08T08:23:42;17.20;88.20
19232;DHT22;9750;48.730;10.294;2023-10-08T08:26:14;17.20;88.20
19232;DHT22;9750;48.730;10.294;2023-10-08T08:28:53;17.30;87.50
19232;DHT22;9750;48.730;10.294;2023-10-08T08:31:23;17.30;87.00
19232;DHT22;9750;48.730;10.294;2023-10-08T08:33:51;17.30;86.50
19232;DHT22;9750;48.730;10.294;2023-10-08T08:36:27;17.40;86.40
19232;DHT22;9750;48.730;10.294;2023-10-08T08:38:55;17.50;86.10
19232;DHT22;9750;48.730;10.294;2023-10-08T08:41:23;17.50;85.00
19232;DHT22;9750;48.730;10.294;2023-10-08T08:43:51;17.60;84.80
19232;DHT22;9750;48.730;10.294;2023-10-08T08:46:30;17.60;84.80
19232;DHT22;9750;48.730;10.294;2023-10-08T08:49:01;17.60;85.30
19232;DHT22;9750;48.730;10.294;2023-10-08T08:51:31;17.60;85.60
19232;DHT22;9750;48.730;10.294;2023-10-08T08:53:59;17.60;86.50
19232;DHT22;9750;48.730;10.294;2023-10-08T08:56:33;17.70;87.30
19232;DHT22;9750;48.730;10.294;2023-10-08T08:59:01;17.70;89.40
19232;DHT22;9750;48.730;10.294;2023-10-08T09:01:30;17.70;88.20
19232;DHT22;9750;48.730;10.294;2023-10-08T09:04:02;17.80;86.90
19232;DHT22;9750;48.730;10.294;2023-10-08T09:06:33;17.80;86.40
19232;DHT22;9750;48.730;10.294;2023-10-08T09:09:00;17.80;84.30
19232;DHT22;9750;48.730;10.294;2023-10-08T09:11:40;17.90;86.00
19232;DHT22;9750;48.730;10.294;2023-10-08T09:14:08;18.00;84.80
19232;DHT22;9750;48.730;10.294;2023-10-08T09:16:37;18.00;83.70
19232;DHT22;9750;48.730;10.294;2023-10-08T09:19:05;18.00;83.30
19232;DHT22;9750;48.730;10.294;2023-10-08T09:21:39;18.00;83.00
19232;DHT22;9750;48.730;10.294;2023-10-08T09:24:07;18.00;82.10
19232;DHT22;9750;48.730;10.294;2023-10-08T09:26:37;18.10;83.60
19232;DHT22;9750;48.730;10.294;2023-10-08T09:29:05;18.20;83.00
19232;DHT22;9750;48.730;10.294;2023-10-08T09:31:34;18.20;83.20
19232;DHT22;9750;48.730;10.294;2023-10-08T09:34:03;18.30;82.90
19232;DHT22;9750;48.730;10.294;2023-10-08T09:36:31;18.40;83.10
19232;DHT22;9750;48.730;10.294;2023-10-08T09:39:02;18.40;83.00
19232;DHT22;9750;48.730;10.294;2023-10-08T09:41:32;18.40;83.40
19232;DHT22;9750;48.730;10.294;2023-10-08T09:44:00;18.50;83.20
19232;DHT22;9750;48.730;10.294;2023-10-08T09:46:31;18.50;82.50
19232;DHT22;9750;48.730;10.294;2023-10-08T09:49:01;18.60;83.10
19232;DHT22;9750;48.730;10.294;2023-10-08T09:51:35;18.70;83.30
19232;DHT22;9750;48.730;10.294;2023-10-08T09:54:09;18.80;83.60
19232;DHT22;9750;48.730;10.294;2023-10-08T09:56:40;18.90;82.80
19232;DHT22;9750;48.730;10.294;2023-10-08T09:59:09;19.10;83.00
19232;DHT22;9750;48.730;10.294;2023-10-08T10:01:37;19.10;82.70
19232;DHT22;9750;48.730;10.294;2023-10-08T10:04:08;19.20;82.70
19232;DHT22;9750;48.730;10.294;2023-10-08T10:06:36;19.20;81.90
19232;DHT22;9750;48.730;10.294;2023-10-08T10:09:06;19.30;82.90
19232;DHT22;9750;48.730;10.294;2023-10-08T10:11:47;19.40;83.70
19232;DHT22;9750;48.730;10.294;2023-10-08T10:14:15;19.50;82.70
19232;DHT22;9750;48.730;10.294;2023-10-08T10:16:43;19.60;83.00
19232;DHT22;9750;48.730;10.294;2023-10-08T10:19:17;19.60;82.70
19232;DHT22;9750;48.730;10.294;2023-10-08T10:21:45;19.70;82.20
19232;DHT22;9750;48.730;10.294;2023-10-08T10:24:28;19.70;82.70
19232;DHT22;9750;48.730;10.294;2023-10-08T10:27:10;19.80;82.50
19232;DHT22;9750;48.730;10.294;2023-10-08T10:29:37;20.00;82.80
19232;DHT22;9750;48.730;10.294;2023-10-08T10:32:06;20.00;80.70
19232;DHT22;9750;48.730;10.294;2023-10-08T10:34:38;20.10;81.20
19232;DHT22;9750;48.730;10.294;2023-10-08T10:37:07;20.10;80.60
19232;DHT22;9750;48.730;10.294;2023-10-08T10:39:52;20.00;81.00
19232;DHT22;9750;48.730;10.294;2023-10-08T10:42:21;20.00;81.40
19232;DHT22;9750;48.730;10.294;2023-10-08T10:44:49;20.10;81.60
19232;DHT22;9750;48.730;10.294;2023-10-08T10:47:18;20.10;80.10
19232;DHT22;9750;48.730;10.294;2023-10-08T10:50:08;20.20;80.40
19232;DHT22;9750;48.730;10.294;2023-10-08T10:52:57;20.20;80.60
19232;DHT22;9750;48.730;10.294;2023-10-08T10:55:26;20.30;80.30
19232;DHT22;9750;48.730;10.294;2023-10-08T10:57:58;20.30;80.20
19232;DHT22;9750;48.730;10.294;2023-10-08T11:00:31;20.30;80.80
19232;DHT22;9750;48.730;10.294;2023-10-08T11:03:23;20.30;79.80
19232;DHT22;9750;48.730;10.294;2023-10-08T11:05:52;20.30;80.40
19232;DHT22;9750;48.730;10.294;2023-10-08T11:08:21;20.40;79.60
19232;DHT22;9750;48.730;10.294;2023-10-08T11:10:52;20.40;80.60
19232;DHT22;9750;48.730;10.294;2023-10-08T11:13:25;20.60;80.70
19232;DHT22;9750;48.730;10.294;2023-10-08T11:15:54;20.70;81.20
19232;DHT22;9750;48.730;10.294;2023-10-08T11:18:26;20.70;79.40
19232;DHT22;9750;48.730;10.294;2023-10-08T11:21:05;20.80;80.10
19232;DHT22;9750;48.730;10.294;2023-10-08T11:23:42;20.80;79.10
19232;DHT22;9750;48.730;10.294;2023-10-08T11:26:14;20.90;79.20
19232;DHT22;9750;48.730;10.294;2023-10-08T11:28:42;20.90;78.30
19232;DHT22;9750;48.730;10.294;2023-10-08T11:31:14;20.80;79.10
19232;DHT22;9750;48.730;10.294;2023-10-08T11:33:46;20.80;78.90
19232;DHT22;9750;48.730;10.294;2023-10-08T11:36:20;20.90;77.70
19232;DHT22;9750;48.730;10.294;2023-10-08T11:38:53;20.80;78.80
19232;DHT22;9750;48.730;10.294;2023-10-08T11:41:28;20.80;78.30
19232;DHT22;9750;48.730;10.294;2023-10-08T11:43:57;20.80;77.80
19232;DHT22;9750;48.730;10.294;2023-10-08T11:46:25;20.80;78.50
19232;DHT22;9750;48.730;10.294;2023-10-08T11:48:53;20.80;78.10
19232;DHT22;9750;48.730;10.294;2023-10-08T11:51:24;20.80;77.40
19232;DHT22;9750;48.730;10.294;2023-10-08T11:53:53;20.80;78.10
19232;DHT22;9750;48.730;10.294;2023-10-08T11:56:22;20.80;77.70
19232;DHT22;9750;48.730;10.294;2023-10-08T11:58:51;20.80;78.30
19232;DHT22;9750;48.730;10.294;2023-10-08T12:01:18;20.80;77.50
19232;DHT22;9750;48.730;10.294;2023-10-08T12:03:46;20.80;77.90
19232;DHT22;9750;48.730;10.294;2023-10-08T12:06:16;20.80;78.30
19232;DHT22;9750;48.730;10.294;2023-10-08T12:08:45;20.80;77.90
19232;DHT22;9750;48.730;10.294;2023-10-08T12:11:13;20.90;78.80
19232;DHT22;9750;48.730;10.294;2023-10-08T12:13:41;20.90;78.00
19232;DHT22;9750;48.730;10.294;2023-10-08T12:16:16;20.90;78.80
19232;DHT22;9750;48.730;10.294;2023-10-08T12:18:48;20.90;77.80
19232;DHT22;9750;48.730;10.294;2023-10-08T12:21:19;21.00;76.50
19232;DHT22;9750;48.730;10.294;2023-10-08T12:23:47;21.10;76.30
19232;DHT22;9750;48.730;10.294;2023-10-08T12:26:15;21.20;77.20
19232;DHT22;9750;48.730;10.294;2023-10-08T12:28:45;21.30;78.20
19232;DHT22;9750;48.730;10.294;2023-10-08T12:31:15;21.50;76.60
19232;DHT22;9750;48.730;10.294;2023-10-08T12:33:47;21.50;76.20
19232;DHT22;9750;48.730;10.294;2023-10-08T12:36:17;21.60;76.80
19232;DHT22;9750;48.730;10.294;2023-10-08T12:38:49;21.50;75.60
19232;DHT22;9750;48.730;10.294;2023-10-08T12:41:23;21.50;75.20
19232;DHT22;9750;48.730;10.294;2023-10-08T12:43:50;21.40;75.60
19232;DHT22;9750;48.730;10.294;2023-10-08T12:46:21;21.40;74.90
19232;DHT22;9750;48.730;10.294;2023-10-08T12:48:51;21.30;74.90
19232;DHT22;9750;48.730;10.294;2023-10-08T12:51:20;21.30;74.70
19232;DHT22;9750;48.730;10.294;2023-10-08T12:53:50;21.30;75.30
19232;DHT22;9750;48.730;10.294;2023-10-08T12:56:24;21.30;75.60
19232;DHT22;9750;48.730;10.294;2023-10-08T12:58:57;21.40;76.50
19232;DHT22;9750;48.730;10.294;2023-10-08T13:01:26;21.40;76.00
19232;DHT22;9750;48.730;10.294;2023-10-08T13:03:55;21.40;77.00
19232;DHT22;9750;48.730;10.294;2023-10-08T13:06:27;21.40;76.30
19232;DHT22;9750;48.730;10.294;2023-10-08T13:08:55;21.40;76.00
19232;DHT22;9750;48.730;10.294;2023-10-08T13:11:24;21.40;75.20
19232;DHT22;9750;48.730;10.294;2023-10-08T13:13:52;21.40;75.00
19232;DHT22;9750;48.730;10.294;2023-10-08T13:16:22;21.40;74.40
19232;DHT22;9750;48.730;10.294;2023-10-08T13:18:52;21.40;75.80
19232;DHT22;9750;48.730;10.294;2023-10-08T13:21:24;21.40;75.90
19232;DHT22;9750;48.730;10.294;2023-10-08T13:23:51;21.40;75.30
19232;DHT22;9750;48.730;10.294;2023-10-08T13:26:19;21.40;76.40
19232;DHT22;9750;48.730;10.294;2023-10-08T13:28:50;21.30;75.10
19232;DHT22;9750;48.730;10.294;2023-10-08T13:31:17;21.30;77.00
19232;DHT22;9750;48.730;10.294;2023-10-08T13:33:45;21.40;77.00
19232;DHT22;9750;48.730;10.294;2023-10-08T13:36:16;21.30;75.70
19232;DHT22;9750;48.730;10.294;2023-10-08T13:38:43;21.30;76.50
19232;DHT22;9750;48.730;10.294;2023-10-08T13:41:12;21.30;76.30
19232;DHT22;9750;48.730;10.294;2023-10-08T13:43:42;21.30;77.30
19232;DHT22;9750;48.730;10.294;2023-10-08T13:46:12;21.30;75.70
19232;DHT22;9750;48.730;10.294;2023-10-08T13:48:40;21.30;76.00
19232;DHT22;9750;48.730;10.294;2023-10-08T13:51:08;21.30;75.80
19232;DHT22;9750;48.730;10.294;2023-10-08T13:53:41;21.30;75.20
19232;DHT22;9750;48.730;10.294;2023-10-08T13:56:11;21.20;75.30
19232;DHT22;9750;48.730;10.294;2023-10-08T13:58:39;21.20;75.60
19232;DHT22;9750;48.730;10.294;2023-10-08T14:01:12;21.10;75.50
19232;DHT22;9750;48.730;10.294;2023-10-08T14:03:46;21.10;76.50
19232;DHT22;9750;48.730;10.294;2023-10-08T14:06:14;21.10;77.00
19232;DHT22;9750;48.730;10.294;2023-10-08T14:08:44;21.10;76.50
19232;DHT22;9750;48.730;10.294;2023-10-08T14:11:18;21.10;76.70
19232;DHT22;9750;48.730;10.294;2023-10-08T14:13:49;21.10;77.60
19232;DHT22;9750;48.730;10.294;2023-10-08T14:16:17;21.10;77.70
19232;DHT22;9750;48.730;10.294;2023-10-08T14:18:49;21.10;77.00
19232;DHT22;9750;48.730;10.294;2023-10-08T14:21:19;21.00;76.00
19232;DHT22;9750;48.730;10.294;2023-10-08T14:23:51;21.00;76.20
19232;DHT22;9750;48.730;10.294;2023-10-08T14:26:19;21.00;75.90
19232;DHT22;9750;48.730;10.294;2023-10-08T14:28:49;21.00;76.40
19232;DHT22;9750;48.730;10.294;2023-10-08T14:31:23;21.10;76.80
19232;DHT22;9750;48.730;10.294;2023-10-08T14:33:52;21.10;75.10
19232;DHT22;9750;48.730;10.294;2023-10-08T14:36:31;21.20;75.40
19232;DHT22;9750;48.730;10.294;2023-10-08T14:39:18;21.30;75.00
19232;DHT22;9750;48.730;10.294;2023-10-08T14:42:11;21.40;75.30
19232;DHT22;9750;48.730;10.294;2023-10-08T14:44:55;21.40;75.60
19232;DHT22;9750;48.730;10.294;2023-10-08T14:47:23;21.40;76.30
19232;DHT22;9750;48.730;10.294;2023-10-08T14:49:50;21.40;76.60
19232;DHT22;9750;48.730;10.294;2023-10-08T14:52:17;21.40;77.30
19232;DHT22;9750;48.730;10.294;2023-10-08T14:54:47;21.50;77.00
19232;DHT22;9750;48.730;10.294;2023-10-08T14:57:15;21.50;76.00
19232;DHT22;9750;48.730;10.294;2023-10-08T14:59:44;21.40;76.60
19232;DHT22;9750;48.730;10.294;2023-10-08T15:02:11;21.30;76.50
19232;DHT22;9750;48.730;10.294;2023-10-08T15:04:38;21.40;78.40
19232;DHT22;9750;48.730;10.294;2023-10-08T15:07:06;21.40;78.30
19232;DHT22;9750;48.730;10.294;2023-10-08T15:09:37;21.40;78.20
19232;DHT22;9750;48.730;10.294;2023-10-08T15:12:06;21.30;78.70
19232;DHT22;9750;48.730;10.294;2023-10-08T15:14:34;21.30;78.20
19232;DHT22;9750;48.730;10.294;2023-10-08T15:17:03;21.20;77.90
19232;DHT22;9750;48.730;10.294;2023-10-08T15:19:31;21.10;79.30
19232;DHT22;9750;48.730;10.294;2023-10-08T15:21:58;21.10;79.50
19232;DHT22;9750;48.730;10.294;2023-10-08T15:24:26;21.10;80.40
19232;DHT22;9750;48.730;10.294;2023-10-08T15:26:55;21.10;80.20
19232;DHT22;9750;48.730;10.294;2023-10-08T15:29:24;21.10;80.20
19232;DHT22;9750;48.730;10.294;2023-10-08T15:31:52;21.00;80.30
19232;DHT22;9750;48.730;10.294;2023-10-08T15:34:20;21.00;80.00
19232;DHT22;9750;48.730;10.294;2023-10-08T15:36:48;21.00;81.00
19232;DHT22;9750;48.730;10.294;2023-10-08T15:39:16;20.90;82.30
19232;DHT22;9750;48.730;10.294;2023-10-08T15:41:48;20.90;83.00
19232;DHT22;9750;48.730;10.294;2023-10-08T15:44:16;20.90;81.80
19232;DHT22;9750;48.730;10.294;2023-10-08T15:46:45;20.90;81.80
19232;DHT22;9750;48.730;10.294;2023-10-08T15:49:12;20.80;82.30
19232;DHT22;9750;48.730;10.294;2023-10-08T15:51:40;20.80;83.40
19232;DHT22;9750;48.730;10.294;2023-10-08T15:54:07;20.70;82.90
19232;DHT22;9750;48.730;10.294;2023-10-08T15:56:34;20.70;82.00
19232;DHT22;9750;48.730;10.294;2023-10-08T15:59:02;20.60;82.40
19232;DHT22;9750;48.730;10.294;2023-10-08T16:01:29;20.60;84.00
19232;DHT22;9750;48.730;10.294;2023-10-08T16:03:58;20.50;84.30